createdAt,value
2023-01-18T06:24:26.548Z,15.27
2023-01-18T06:26:54.601Z,14.87
2023-01-18T06:29:21.929Z,15.07
2023-01-18T06:31:49.309Z,14.40
2023-01-18T06:34:16.664Z,14.53
2023-01-18T06:36:45.298Z,14.63
2023-01-18T06:39:13.300Z,14.47
2023-01-18T06:41:40.940Z,14.17
2023-01-18T06:44:08.610Z,14.40
2023-01-18T06:46:36.081Z,14.37
2023-01-18T06:49:03.545Z,14.73
2023-01-18T06:51:31.022Z,14.13
2023-01-18T06:53:58.370Z,13.83
2023-01-18T06:56:26.883Z,13.73
2023-01-18T06:58:55.890Z,13.10
2023-01-18T07:01:23.290Z,13.40
2023-01-18T07:03:50.822Z,13.53
2023-01-18T07:06:18.280Z,13.07
2023-01-18T07:08:45.655Z,13.10
2023-01-18T07:11:14.212Z,12.67
2023-01-18T07:13:43.692Z,12.23
2023-01-18T07:16:18.529Z,12.53
2023-01-18T07:18:46.900Z,10.87
2023-01-18T07:21:15.343Z,11.00
2023-01-18T07:23:43.303Z,10.70
2023-01-18T07:26:17.752Z,11.53
2023-01-18T07:28:46.095Z,10.73
2023-01-18T07:31:13.900Z,10.30
2023-01-18T07:33:41.300Z,10.13
2023-01-18T07:36:10.936Z,10.50
2023-01-18T07:38:39.466Z,9.33
2023-01-18T07:41:11.412Z,10.17
2023-01-18T07:43:39.099Z,9.40
2023-01-18T07:46:11.898Z,9.10
2023-01-18T07:48:39.423Z,8.67
2023-01-18T07:51:08.426Z,8.20
2023-01-18T07:53:36.850Z,8.63
2023-01-18T07:56:06.743Z,8.10
2023-01-18T07:58:34.782Z,8.37
2023-01-18T08:01:07.350Z,7.70
2023-01-18T08:03:34.731Z,8.60
2023-01-18T08:06:02.233Z,7.80
2023-01-18T08:08:30.006Z,7.67
2023-01-18T08:10:57.571Z,8.45
2023-01-18T08:13:25.677Z,7.80
2023-01-18T08:15:53.057Z,7.53
2023-01-18T08:18:20.533Z,7.77
2023-01-18T08:20:48.543Z,8.10
2023-01-18T08:23:16.515Z,7.63
2023-01-18T08:25:44.002Z,8.13
2023-01-18T08:28:11.869Z,7.83
2023-01-18T08:30:41.028Z,7.13
2023-01-18T08:33:08.656Z,7.00
2023-01-18T08:35:40.422Z,7.53
2023-01-18T08:38:07.801Z,7.37
2023-01-18T08:40:35.204Z,7.30
2023-01-18T08:43:03.500Z,7.83
2023-01-18T08:45:32.682Z,8.40
2023-01-18T08:48:01.826Z,8.60
2023-01-18T08:50:29.431Z,9.37
2023-01-18T08:52:58.555Z,10.27
2023-01-18T08:55:27.092Z,9.93
2023-01-18T08:57:56.806Z,9.03
2023-01-18T09:00:26.903Z,8.83
2023-01-18T09:02:55.014Z,9.27
2023-01-18T09:05:22.897Z,8.90
2023-01-18T09:07:50.960Z,8.60
2023-01-18T09:10:18.454Z,8.50
2023-01-18T09:12:45.846Z,8.10
2023-01-18T12:18:18.062Z,5.25
2023-01-18T12:20:52.841Z,4.30
2023-01-18T12:23:40.356Z,4.43
2023-01-18T12:26:23.940Z,4.40
2023-01-18T12:29:00.297Z,4.00
2023-01-18T12:31:39.747Z,4.33
2023-01-18T12:34:07.095Z,3.80
2023-01-18T12:36:45.303Z,4.23
2023-01-18T12:39:32.923Z,4.00
2023-01-18T12:42:05.505Z,3.70
2023-01-18T12:44:48.861Z,4.00
2023-01-18T12:47:19.100Z,4.67
2023-01-18T12:49:48.394Z,4.43
2023-01-18T12:52:19.347Z,4.17
2023-01-18T12:54:49.609Z,4.43
2023-01-18T12:57:17.398Z,5.30
2023-01-18T12:59:50.851Z,4.87
2023-01-18T13:02:24.165Z,4.90
2023-01-18T13:05:00.468Z,5.30
2023-01-18T13:07:33.339Z,5.40
2023-01-18T13:10:01.649Z,4.83
2023-01-18T13:12:29.488Z,5.53
2023-01-18T13:15:03.620Z,5.30
2023-01-18T13:17:48.479Z,4.93
2023-01-18T13:20:23.350Z,5.67
2023-01-18T13:23:02.850Z,4.50
2023-01-18T13:25:36.366Z,6.20
2023-01-18T13:28:05.628Z,5.73
2023-01-18T13:30:45.883Z,5.50
2023-01-18T13:33:14.847Z,6.93
2023-01-18T13:35:55.483Z,10.27
2023-01-18T13:38:40.112Z,13.47
2023-01-18T13:41:08.788Z,8.20
2023-01-18T13:43:40.389Z,6.97
2023-01-18T13:46:07.939Z,7.00
2023-01-18T13:48:54.522Z,6.63
2023-01-18T13:51:38.014Z,7.37
2023-01-18T13:54:07.020Z,8.00
2023-01-18T13:56:36.688Z,8.53
2023-01-18T13:59:18.504Z,8.43
2023-01-18T14:01:49.012Z,9.17
2023-01-18T14:04:16.581Z,9.43
2023-01-18T14:06:44.872Z,9.80
2023-01-18T14:09:18.499Z,10.37
2023-01-18T14:11:53.799Z,10.23
2023-01-18T14:14:21.215Z,9.67
2023-01-18T14:17:07.476Z,10.23
2023-01-18T14:19:59.840Z,10.17
2023-01-18T14:22:33.205Z,10.23
2023-01-18T14:25:18.913Z,10.70
2023-01-18T14:27:47.912Z,9.63
2023-01-18T14:30:41.438Z,10.87
2023-01-18T14:33:13.480Z,10.90
2023-01-18T14:35:51.253Z,10.40
2023-01-18T14:38:19.153Z,9.73
2023-01-18T14:40:54.311Z,9.90
2023-01-18T14:43:29.440Z,11.20
2023-01-18T14:46:07.927Z,9.60
2023-01-18T14:48:36.841Z,9.83
2023-01-18T14:51:07.018Z,10.20
2023-01-18T14:53:47.403Z,9.87
2023-01-18T14:56:15.021Z,10.37
2023-01-18T14:58:59.211Z,10.10
2023-01-18T15:01:40.430Z,10.10
2023-01-18T15:04:19.654Z,10.33
2023-01-18T15:06:49.714Z,9.30
2023-01-18T15:09:19.592Z,9.13
2023-01-18T15:11:47.834Z,9.73
2023-01-18T15:14:24.388Z,10.80
2023-01-18T15:16:53.867Z,11.40
2023-01-18T15:19:24.515Z,12.00
2023-01-18T15:21:52.614Z,11.60
2023-01-18T15:24:29.129Z,11.53
2023-01-18T15:26:58.097Z,11.10
2023-01-18T15:29:32.373Z,11.73
2023-01-18T15:32:03.542Z,12.03
2023-01-18T15:34:32.977Z,11.40
2023-01-18T15:37:01.542Z,11.87
2023-01-18T15:39:29.161Z,12.77
2023-01-18T15:41:57.874Z,12.67
2023-01-18T15:44:30.940Z,13.90
2023-01-18T15:47:00.984Z,13.60
2023-01-18T15:49:29.111Z,12.73
2023-01-18T15:51:57.232Z,13.70
2023-01-18T15:54:29.188Z,13.40
2023-01-18T15:56:59.363Z,13.10
2023-01-18T15:59:30.795Z,13.40
2023-01-18T16:02:10.561Z,12.57
2023-01-18T16:04:38.321Z,11.27
2023-01-18T16:07:25.888Z,12.73
2023-01-18T16:10:30.192Z,12.50
2023-01-18T16:13:17.926Z,12.37
2023-01-18T16:15:45.805Z,12.97
2023-01-18T16:18:14.414Z,13.57
2023-01-18T16:20:41.931Z,12.87
2023-01-18T16:23:10.618Z,14.80
2023-01-18T16:25:40.679Z,16.47
2023-01-18T16:28:08.229Z,15.90
2023-01-18T16:30:40.540Z,15.40
2023-01-18T16:33:13.011Z,16.00
2023-01-18T16:35:42.031Z,16.30
2023-01-18T16:38:13.224Z,15.57
2023-01-18T16:40:42.840Z,17.43
2023-01-18T16:43:20.190Z,18.03
2023-01-18T16:45:48.812Z,18.60
2023-01-18T16:48:25.989Z,19.37
2023-01-18T16:50:55.880Z,20.53
2023-01-18T16:53:23.518Z,19.60
2023-01-18T16:55:51.663Z,20.47
2023-01-18T16:58:21.273Z,21.23
2023-01-18T17:00:57.962Z,21.27
2023-01-18T17:03:25.404Z,21.07
2023-01-18T17:05:53.107Z,21.90
2023-01-18T17:08:21.193Z,21.73
2023-01-18T17:10:49.915Z,23.73
2023-01-18T17:13:17.518Z,22.87
2023-01-18T17:15:45.463Z,25.20
2023-01-18T17:18:17.416Z,24.00
2023-01-18T17:20:45.192Z,24.30
2023-01-18T17:23:12.689Z,24.40
2023-01-18T17:25:41.036Z,27.37
2023-01-18T17:28:08.651Z,24.00
2023-01-18T17:30:36.595Z,24.60
2023-01-18T17:33:04.177Z,26.77
2023-01-18T17:35:32.120Z,24.33
2023-01-18T17:38:05.459Z,25.70
2023-01-18T17:40:43.868Z,25.07
2023-01-18T17:43:28.432Z,25.33
2023-01-18T17:46:03.001Z,26.80
2023-01-18T17:48:30.866Z,27.03
2023-01-18T17:51:01.600Z,25.13
2023-01-18T17:53:29.011Z,26.60
2023-01-18T17:55:56.435Z,26.37
2023-01-18T17:58:23.769Z,24.90
2023-01-18T18:00:51.326Z,26.07
2023-01-18T18:03:18.840Z,26.80
2023-01-18T18:05:46.310Z,36.83
2023-01-18T18:08:13.639Z,30.83
2023-01-18T18:10:43.493Z,32.83
2023-01-18T18:13:10.916Z,35.23
2023-01-18T18:15:38.785Z,33.83
2023-01-18T18:18:12.204Z,37.50
2023-01-18T18:20:49.785Z,37.10
2023-01-18T18:23:17.189Z,33.73
2023-01-18T18:25:46.142Z,32.47
2023-01-18T18:28:13.535Z,26.83
2023-01-18T18:30:41.010Z,27.77
2023-01-18T18:33:08.352Z,29.33
2023-01-18T18:36:08.467Z,35.42
2023-01-18T18:38:35.988Z,29.03
2023-01-18T18:41:04.255Z,28.37
2023-01-18T18:43:31.815Z,29.30
2023-01-18T18:45:59.243Z,28.33
2023-01-18T18:48:26.733Z,30.27
2023-01-18T18:50:54.858Z,29.60
2023-01-18T18:53:29.556Z,30.03
2023-01-18T18:56:01.669Z,28.63
2023-01-18T18:58:29.282Z,30.93
2023-01-18T19:00:56.701Z,32.03
2023-01-18T19:03:25.947Z,32.03
2023-01-18T19:05:55.571Z,32.03
2023-01-18T19:08:23.092Z,32.10
2023-01-18T19:10:51.185Z,32.37
2023-01-18T19:13:19.246Z,31.30
2023-01-18T19:15:50.927Z,33.67
2023-01-18T19:18:18.323Z,33.00
2023-01-18T19:20:45.704Z,34.73
2023-01-18T19:23:13.131Z,34.37
2023-01-18T19:25:40.948Z,34.77
2023-01-18T19:28:08.762Z,35.67
2023-01-18T19:30:38.439Z,35.17
2023-01-18T19:33:06.218Z,36.23
2023-01-18T19:35:39.779Z,33.47
2023-01-18T19:38:08.594Z,39.50
2023-01-18T19:40:35.984Z,36.13
2023-01-18T19:43:03.682Z,38.80
2023-01-18T19:45:31.578Z,37.10
2023-01-18T19:48:00.651Z,37.37
2023-01-18T19:50:28.803Z,37.97
2023-01-18T19:52:56.221Z,35.33
2023-01-18T19:55:25.076Z,35.60
2023-01-18T19:57:54.958Z,37.63
2023-01-18T20:00:22.636Z,37.40
2023-01-18T20:02:50.363Z,39.63
2023-01-18T20:05:17.868Z,37.07
2023-01-18T20:07:45.571Z,39.67
2023-01-18T20:10:12.962Z,41.97
2023-01-18T20:12:40.373Z,39.17
2023-01-18T20:15:07.946Z,37.77
2023-01-18T20:17:35.314Z,37.50
2023-01-18T20:20:02.702Z,37.93
2023-01-18T20:22:30.941Z,37.70
2023-01-18T20:24:58.313Z,36.63
2023-01-18T20:27:25.755Z,35.37
2023-01-18T20:29:53.195Z,37.63
2023-01-18T20:32:20.837Z,37.07
2023-01-18T20:34:48.651Z,35.60
2023-01-18T20:37:16.623Z,34.37
2023-01-18T20:39:44.149Z,35.20
2023-01-18T20:42:11.640Z,33.17
2023-01-18T20:44:39.231Z,34.60
2023-01-18T20:47:07.100Z,33.50
2023-01-18T20:49:38.822Z,32.93
2023-01-18T20:52:07.314Z,33.30
2023-01-18T20:54:37.921Z,34.03
2023-01-18T20:57:06.552Z,34.40
2023-01-18T20:59:34.469Z,33.53
2023-01-18T21:02:03.365Z,34.13
2023-01-18T21:04:30.918Z,33.33
2023-01-18T21:06:58.495Z,32.83
2023-01-18T21:09:26.253Z,32.70
2023-01-18T21:11:53.631Z,32.77
2023-01-18T21:14:21.090Z,33.30
2023-01-18T21:16:48.576Z,32.33
2023-01-18T21:19:16.071Z,31.93
2023-01-18T21:21:44.591Z,33.77
2023-01-18T21:24:11.982Z,32.33
2023-01-18T21:26:39.466Z,31.00
2023-01-18T21:29:06.799Z,32.40
2023-01-18T21:31:34.237Z,31.83
2023-01-18T21:34:01.664Z,32.07
2023-01-18T21:36:29.130Z,34.37
2023-01-18T21:38:56.634Z,31.73
2023-01-18T21:41:42.544Z,33.60
2023-01-18T21:44:30.722Z,31.60
2023-01-18T21:46:58.982Z,30.43
2023-01-18T21:50:16.014Z,32.20
2023-01-18T21:52:51.803Z,32.10
2023-01-18T21:55:19.501Z,31.70
2023-01-18T21:58:06.886Z,31.93
2023-01-18T22:00:37.267Z,31.90
2023-01-18T22:03:05.090Z,31.97
2023-01-18T22:05:32.567Z,31.90
2023-01-18T22:08:00.328Z,30.50
2023-01-18T22:10:28.085Z,30.97
2023-01-18T22:12:55.998Z,31.37
2023-01-18T22:15:23.361Z,32.00
2023-01-18T22:17:50.759Z,31.37
2023-01-18T22:20:18.553Z,31.87
2023-01-18T22:22:46.674Z,32.37
2023-01-18T22:25:14.137Z,33.33
2023-01-18T22:27:41.559Z,33.63
2023-01-18T22:30:09.341Z,35.17
2023-01-18T22:32:36.658Z,37.30
2023-01-18T22:35:03.972Z,34.80
2023-01-18T22:37:31.410Z,35.37
2023-01-18T22:39:58.926Z,34.07
2023-01-18T22:42:26.413Z,34.73
2023-01-18T22:44:53.745Z,33.37
2023-01-18T22:47:21.131Z,34.77
